Pagrindinis puslapis
METAR-TAF:

METAR-TAF

Oro uostai :

Bengalūras, Indija

platuma: 12-57-00N, ilguma: 077-40-06E, Aukštis: 888 m

Dabartinis oras

Ataskaita buvo paskelbta 2 valandos ir 19 minutes, ne 18:00 UTC
Vėjas 10 kt iš Vakarų/Pietvakarių
Temperatūra 21°C
Drėgmė 94%
Slėgis 1011 hPa
Matomumas: 5000 m
Išsisklaidę debesys ne aukštis 800 ft
Išsisklaidę debesys ne aukštis 1200 ft
rūkana

METAR: VOBG 221800Z 25010KT 5000 BR SCT008 SCT012 21/20 Q1011 NOSIG

Laikas: 01:49 (20:19 UTC)

Prognozė

Ataskaita buvo paskelbta 3 valandos ir 19 minutes, ne 17:00 UTC
Prognozė galioja nuo 22 metu 18 UTC su 23 metu 03 UTC
Vėjas 10 kt iš Vakarų
Matomumas: 6000 m
Išsisklaidę debesys ne aukštis 1200 ft
Išsisklaidę debesys ne aukštis 8000 ft
Laikinai
nuo 22 metu 22 UTC su 23 metu 03 UTC
Matomumas: 3000 m
Su prošvaistėmis ne aukštis 800 ft
Išsisklaidę debesys ne aukštis 1200 ft
Su prošvaistėmis ne aukštis 8000 ft
dulksna, rūkana

TAF: VOBG 221700Z 2218/2303 27010KT 6000 SCT012 SCT080 TEMPO 2222/2303 3000 DZ BR BKN008 SCT012 BKN080

Orai ataskaitas ir orų prognozės (METAR, TAF).

turimą stotys yra geltonos ir raudonos taškus žemėlapyje.

Perkelti pele per norėdami pamatyti stoties vardą.

Tada spustelėkite, norėdami matyti oro stebėjimo ir prognozės.

Norėdami pakeisti žemėlapį: spustelėkite ant žalios mygtukų su juodo kryžiaus žemyn,; žalią mygtuką su brūkšneliu, jei norite nutolinti; arba žalių rodyklių gretimoms žemėlapius.


METAR-TAF: